Men Biathlon Sprint 10km Olympic Games 2014 Sochi (RUS) - Saturday 08.02
Biathlon Men 10km, 12.5km History
Final 18:30time+timePShootStart timebib
1. Ole Einar BjoerndalenNORNOR24:33.5 10+118:42:0024
2. Dominik LandertingerAUTAUT24:34.8+1.3s00+018:37:3015
3. Jaroslav SoukupCZECZE24:39.2+5.7s00+018:50:0040
4. Anton ShipulinRUSRUS24:39.9+6.4s10+118:54:0048
5. Jean-Philippe Le GuellecCANCAN24:43.2+9.7s00+019:02:3065
6. Martin FourcadeFRAFRA24:45.9+12.4s11+018:49:3039
7. Simon EderAUTAUT24:47.2+13.7s00+018:45:0030
8. Ondrej MoravecCZECZE24:48.1+14.6s00+018:33:006
9. Emil Hegle SvendsenNORNOR25:02.8+29.3s10+118:44:3029
10.Jakov FakSLOSLO25:06.5+33.0s00+019:06:0072
11.Dominik WindischITAITA25:07.6+34.1s11+018:48:3037
12.Lukas HoferITAITA25:08.8+35.3s10+119:07:3075
13.Nathan SmithCANCAN25:09.7+36.2s00+018:30:301
14.Jean Guillaume BeatrixFRAFRA25:12.1+38.6s11+018:58:3057
15.Simon SchemppGERGER25:16.4+42.9s00+018:57:3055
16.Evgeny UstyugovRUSRUS25:19.1+45.6s11+018:34:008
17.Andrejs RastorgujevsLATLAT25:20.2+46.7s11+018:47:3035
18.Fredrik LindstroemSWESWE25:21.0+47.5s00+018:31:002
19.Tim BurkeUSAUSA25:23.3+49.8s10+118:51:3043
20.Christoph SumannAUTAUT25:25.5+52.0s00+018:46:0032
21.Erik LesserGERGER25:26.7+53.2s10+119:01:0062
22.Andriy DeryzemlyaUKRUKR25:29.0+55.5s10+118:45:3031
23.Brendan GreenCANCAN25:31.7+58.2s11+018:55:3051
24.Carl Johan BergmanSWESWE25:35.9+1:02.410+119:05:0070
25.Bjoern FerrySWESWE25:36.4+1:02.922+018:48:0036
26.Klemen BauerSLOSLO25:40.7+1:07.221+118:57:0054
27.Evgeniy GaranichevRUSRUS25:43.0+1:09.510+119:04:0068
28.Dmitry MalyshkoRUSRUS25:48.5+1:15.000+018:53:0046
29.Vladimir ChepelinBLRBLR25:49.7+1:16.210+118:39:3019
30.Cornel PuchianuROUROU25:50.7+1:17.200+018:36:3013
31.Michal SlesingrCZECZE25:51.7+1:18.211+018:43:3027
32.Artem PrymaUKRUKR25:57.6+1:24.110+119:08:3077
33.Sergey NovikovBLRBLR26:00.8+1:27.300+018:55:0050
34.Arnd PeifferGERGER26:01.2+1:27.732+118:49:0038
35.Lowell BaileyUSAUSA26:04.1+1:30.621+118:43:0026
36.Simon FourcadeFRAFRA26:04.2+1:30.721+119:02:0064
37.Matej KazarSVKSVK26:04.8+1:31.332+118:40:3021
38.Daniel MesotitschAUTAUT26:06.6+1:33.120+219:04:3069
39.Tarjei BoeNORNOR26:10.1+1:36.630+318:56:0052
40.Serafin WiestnerSUISUI26:10.2+1:36.721+118:37:0014
41.Serhiy SemenovUKRUKR26:10.4+1:36.911+019:03:3067
42.Tobias ArwidsonSWESWE26:11.8+1:38.311+019:11:0082
43.Yan SavitskiyKAZKAZ26:13.0+1:39.511+018:38:0016
44.Serguei SednevUKRUKR26:16.8+1:43.311+018:39:0018
45.Leif NordgrenUSAUSA26:17.4+1:43.900+019:06:3073
46.Simon DesthieuxFRAFRA26:18.2+1:44.720+218:31:303
47.Christian De LorenziITAITA26:25.4+1:51.921+119:10:3081
48.Tomas KaukenasLTULTU26:26.2+1:52.720+218:32:004
49.Krasimir AnevBULBUL26:28.0+1:54.533+018:52:3045
50.Danil SteptsenkoESTEST26:40.5+2:07.021+118:52:0044
51.Janez MaricSLOSLO26:41.3+2:07.810+119:13:0086
52.Pavol HurajtSVKSVK26:45.8+2:12.300+018:58:0056
53.Indrek TobrelutsESTEST26:46.5+2:13.030+319:03:0066
54.Kauri KoivESTEST26:47.1+2:13.632+118:32:305
55.Johannes Thingnes BoeNORNOR26:51.0+2:17.542+218:47:0034
56.Evgeny AbramenkoBLRBLR26:55.0+2:21.521+119:00:3061
57.Yuryi LiadovBLRBLR26:55.1+2:21.621+119:10:0080
58.Christoph StephanGERGER26:55.4+2:21.921+118:35:3011
59.Sergey NaumikKAZKAZ26:55.5+2:22.010+119:05:3071
60.Vladimir IlievBULBUL26:55.9+2:22.442+218:59:3059
61.Russell CurrierUSAUSA26:58.5+2:25.044+019:13:3087
62.Ahti ToivanenFINFIN26:58.6+2:25.121+118:59:0058
63.Benjamin WegerSUISUI27:00.5+2:27.011+018:50:3041
64.Krzysztof PlywaczykPOLPOL27:02.3+2:28.810+118:38:3017
65.Tomas HasillaSVKSVK27:05.4+2:31.932+119:07:0074
66.Roland LessingESTEST27:06.3+2:32.830+319:08:0076
67.Lee-Steve JacksonGBRGBR27:07.5+2:34.010+118:51:0042
68.Martin OtcenasSVKSVK27:07.8+2:34.331+219:11:3083
69.Milanko PetrovicSRBSRB27:08.2+2:34.731+218:40:0020
70.Michail KletcherovBULBUL27:13.6+2:40.121+118:36:0012
71.Hidenori IsaJPNJPN27:15.2+2:41.731+218:44:0028
72.Peter DoklSLOSLO27:20.1+2:46.611+018:42:3025
73.Alexei AlmoukovAUSAUS27:24.6+2:51.120+218:46:3033
74.Scott PerrasCANCAN27:32.1+2:58.632+119:09:0078
75.Tomas KrupcikCZECZE27:39.3+3:05.821+119:01:3063
76.Ivan ZlatevBULBUL27:48.5+3:15.021+119:12:3085
77.Lukasz SzczurekPOLPOL27:57.2+3:23.722+018:56:3053
78.Jarkko KauppinenFINFIN27:57.8+3:24.332+118:33:307
79.Karoly GombosHUNHUN28:04.3+3:30.810+118:53:3047
80.Anton PantovKAZKAZ28:05.0+3:31.542+218:54:3049
81.Markus WindischITAITA28:14.4+3:40.921+118:41:3023
82.In-Bok LeeKORKOR28:35.9+4:02.410+118:41:0022
83.Long RenCHNCHN28:53.2+4:19.740+418:35:0010
84.Victor Lobo EscolarESPESP28:53.3+4:19.844+018:34:309
85.Grzegorz GuzikPOLPOL29:17.2+4:43.754+119:00:0060
86.Rafal LepelPOLPOL29:25.8+4:52.321+119:12:0084
87.Dias KeneshevKAZKAZ30:06.8+5:33.342+219:09:3079
Positions
NOR 1. 9. 39. 55.
AUT 2. 7. 20. 38.
CZE 3. 8. 31. 75.
RUS 4. 16. 27. 28.
CAN 5. 13. 23. 74.
FRA 6. 14. 36. 46.
SLO 10. 26. 51. 72.
ITA 11. 12. 47. 81.
GER 15. 21. 34. 58.
LAT 17.
SWE 18. 24. 25. 42.
USA 19. 35. 45. 61.
UKR 22. 32. 41. 44.
BLR 29. 33. 56. 57.
ROU 30.
SVK 37. 52. 68.
SUI 40. 63.
KAZ 43. 59. 80. 87.
LTU 48.
BUL 49. 60. 70. 76.
EST 50. 53. 54.
FIN 62. 78.
POL 67. 77. 85. 86.
SRB 69.
JPN 71.
AUS 73.
HUN 79.
KOR 82.
CHN 83.
ESP 84.
Todor66
Winter OG index
_ indexSochi 2014
Sochi 2014
Ice Hockey Men
Ice Hockey Women
index Nordic Skiing
index Alpine Skiing
index Biathlon
index Speed Skating
index Figure Skating
index Short Track
index Bobsleigh Luge Skeleton
index Snowboard
index Free Style Skiing
Curling Men
Curling Women
Biathlon
Biathlon Women 7.5km Sprint
Biathlon Men 10km Sprint
Biathlon Women 10km Pursuit
Biathlon Men 12.5km Pursuit
Biathlon Women 15km
Biathlon Men 20km
Biathlon Men 15km Mass Start
Biathlon Women 12.5km Mass Start
Biathlon Women 4x6km Relay
Biathlon Men 4x7.5km Relay
Biathlon Women 2x6km and Men 2x7.5km Relay
.

Prepared and maintained by Todor Krastev

todor1966@yahoo.com
Last updated: 28 Feb 2014

Quantcast